createdAt,value
2023-01-12T00:01:29.428Z,13.30
2023-01-12T00:03:56.118Z,13.30
2023-01-12T00:06:22.808Z,13.30
2023-01-12T00:08:49.472Z,13.30
2023-01-12T00:11:16.139Z,13.30
2023-01-12T00:13:42.826Z,13.30
2023-01-12T00:16:09.490Z,13.20
2023-01-12T00:18:36.917Z,13.20
2023-01-12T00:21:03.607Z,13.20
2023-01-12T00:23:30.560Z,13.20
2023-01-12T00:25:57.255Z,13.20
2023-01-12T00:28:24.191Z,13.20
2023-01-12T00:30:50.861Z,13.20
2023-01-12T00:33:17.558Z,13.20
2023-01-12T00:35:44.254Z,13.10
2023-01-12T00:38:10.931Z,13.10
2023-01-12T00:40:37.641Z,13.20
2023-01-12T00:43:04.989Z,13.10
2023-01-12T00:45:31.902Z,13.10
2023-01-12T00:47:58.592Z,13.10
2023-01-12T00:50:25.287Z,13.10
2023-01-12T00:52:52.179Z,13.10
2023-01-12T00:55:18.900Z,13.00
2023-01-12T00:57:45.572Z,13.10
2023-01-12T01:00:12.261Z,13.10
2023-01-12T01:02:39.162Z,13.00
2023-01-12T01:05:05.873Z,13.00
2023-01-12T01:07:32.773Z,13.00
2023-01-12T01:09:59.441Z,13.00
2023-01-12T01:12:26.300Z,13.00
2023-01-12T01:14:53.185Z,13.00
2023-01-12T01:17:19.850Z,13.00
2023-01-12T01:19:46.520Z,13.00
2023-01-12T01:22:13.289Z,13.00
2023-01-12T01:24:40.210Z,13.00
2023-01-12T01:27:06.909Z,13.00
2023-01-12T01:29:33.815Z,12.90
2023-01-12T01:32:00.701Z,12.90
2023-01-12T01:34:27.384Z,12.90
2023-01-12T01:36:54.281Z,12.90
2023-01-12T01:39:20.974Z,12.90
2023-01-12T01:41:47.651Z,12.90
2023-01-12T01:44:14.533Z,12.90
2023-01-12T01:46:41.266Z,12.90
2023-01-12T01:49:08.090Z,12.90
2023-01-12T01:51:34.827Z,12.90
2023-01-12T01:54:01.481Z,12.90
2023-01-12T01:56:28.169Z,12.80
2023-01-12T01:58:54.826Z,12.80
2023-01-12T02:01:21.654Z,12.80
2023-01-12T02:03:48.368Z,12.80
2023-01-12T02:06:15.232Z,12.80
2023-01-12T02:08:41.875Z,12.80
2023-01-12T02:11:08.518Z,12.80
2023-01-12T02:13:35.408Z,12.80
2023-01-12T02:16:02.376Z,12.80
2023-01-12T02:18:29.088Z,12.70
2023-01-12T02:20:55.771Z,12.70
2023-01-12T02:23:22.416Z,12.70
2023-01-12T02:25:49.268Z,12.70
2023-01-12T02:28:15.913Z,12.70
2023-01-12T02:30:42.548Z,12.70
2023-01-12T02:33:09.379Z,12.70
2023-01-12T02:35:36.005Z,12.70
2023-01-12T02:38:02.868Z,12.70
2023-01-12T02:40:29.506Z,12.70
2023-01-12T02:42:56.345Z,12.70
2023-01-12T02:45:22.972Z,12.60
2023-01-12T02:47:49.621Z,12.60
2023-01-12T02:50:16.271Z,12.60
2023-01-12T02:52:43.453Z,12.60
2023-01-12T02:55:10.097Z,12.60
2023-01-12T02:57:36.749Z,12.60
2023-01-12T03:00:03.382Z,12.60
2023-01-12T03:02:30.011Z,12.60
2023-01-12T03:04:56.639Z,12.50
2023-01-12T03:07:23.274Z,12.60
2023-01-12T03:09:49.926Z,12.50
2023-01-12T03:12:16.761Z,12.50
2023-01-12T03:14:43.387Z,12.50
2023-01-12T03:17:10.015Z,12.50
2023-01-12T03:19:36.666Z,12.50
2023-01-12T03:22:03.533Z,12.50
2023-01-12T03:24:30.177Z,12.50
2023-01-12T03:26:56.799Z,12.50
2023-01-12T03:29:23.640Z,12.50
2023-01-12T03:31:50.264Z,12.50
2023-01-12T03:34:17.094Z,12.50
2023-01-12T03:36:43.720Z,12.50
2023-01-12T03:39:10.363Z,12.50
2023-01-12T03:41:36.995Z,12.50
2023-01-12T03:44:03.630Z,12.50
2023-01-12T03:46:30.507Z,12.50
2023-01-12T03:48:57.360Z,12.40
2023-01-12T03:51:23.995Z,12.40
2023-01-12T03:53:50.619Z,12.40
2023-01-12T03:56:17.253Z,12.40
2023-01-12T03:58:44.093Z,12.40
2023-01-12T04:01:10.827Z,12.40
2023-01-12T04:03:38.610Z,12.40
2023-01-12T04:06:05.255Z,12.40
2023-01-12T04:08:32.096Z,12.40
2023-01-12T04:10:58.949Z,12.40
2023-01-12T04:13:25.571Z,12.30
2023-01-12T04:15:52.407Z,12.40
2023-01-12T04:18:19.060Z,12.30
2023-01-12T04:20:45.715Z,12.30
2023-01-12T04:23:12.358Z,12.30
2023-01-12T04:25:38.996Z,12.30
2023-01-12T04:28:05.601Z,12.30
2023-01-12T04:30:32.469Z,12.30
2023-01-12T04:32:59.115Z,12.30
2023-01-12T04:35:25.773Z,12.30
2023-01-12T04:37:52.431Z,12.30
2023-01-12T04:40:19.064Z,12.30
2023-01-12T04:42:45.713Z,12.30
2023-01-12T04:45:12.349Z,12.30
2023-01-12T04:47:38.987Z,12.20
2023-01-12T04:50:05.631Z,12.20
2023-01-12T04:52:32.264Z,12.20
2023-01-12T04:54:58.900Z,12.20
2023-01-12T04:57:25.542Z,12.20
2023-01-12T04:59:52.178Z,12.20
2023-01-12T05:02:18.829Z,12.20
2023-01-12T05:04:45.671Z,12.20
2023-01-12T05:07:12.311Z,12.20
2023-01-12T05:09:39.152Z,12.20
2023-01-12T05:12:05.787Z,12.20
2023-01-12T05:14:32.798Z,12.20
2023-01-12T05:16:59.778Z,12.10
2023-01-12T05:19:26.417Z,12.20
2023-01-12T05:21:53.259Z,12.20
2023-01-12T05:24:19.887Z,12.10
2023-01-12T05:26:46.517Z,12.10
2023-01-12T05:29:13.152Z,12.10
2023-01-12T05:31:39.782Z,12.10
2023-01-12T05:34:06.426Z,12.10
2023-01-12T05:36:33.087Z,12.10
2023-01-12T05:38:59.954Z,12.10
2023-01-12T05:41:26.579Z,12.10
2023-01-12T05:43:53.287Z,12.10
2023-01-12T05:46:19.958Z,12.10
2023-01-12T05:48:46.895Z,12.10
2023-01-12T05:51:13.568Z,12.10
2023-01-12T05:53:40.432Z,12.00
2023-01-12T05:56:07.075Z,12.00
2023-01-12T05:58:33.710Z,12.00
2023-01-12T06:01:00.391Z,12.00
2023-01-12T06:03:27.965Z,12.00
2023-01-12T06:05:54.939Z,12.00
2023-01-12T06:08:21.567Z,12.00
2023-01-12T06:10:48.202Z,12.00
2023-01-12T06:13:14.839Z,12.00
2023-01-12T06:15:41.563Z,12.00
2023-01-12T06:18:08.218Z,12.00
2023-01-12T06:20:34.862Z,12.00
2023-01-12T06:23:01.496Z,12.00
2023-01-12T06:25:28.167Z,12.00
2023-01-12T06:27:54.870Z,11.90
2023-01-12T06:30:21.509Z,12.00
2023-01-12T06:32:48.362Z,11.90
2023-01-12T06:35:19.452Z,11.90
2023-01-12T06:37:46.681Z,11.90
2023-01-12T06:40:13.327Z,11.90
2023-01-12T06:42:40.195Z,11.90
2023-01-12T06:45:06.851Z,11.90
2023-01-12T06:47:33.526Z,11.90
2023-01-12T06:50:00.194Z,11.90
2023-01-12T06:52:26.856Z,11.90
2023-01-12T06:54:53.493Z,11.90
2023-01-12T06:57:20.362Z,11.90
2023-01-12T06:59:47.222Z,11.90
2023-01-12T07:02:13.923Z,11.90
2023-01-12T07:04:40.873Z,11.90
2023-01-12T07:07:07.534Z,11.80
2023-01-12T07:09:34.377Z,11.90
2023-01-12T07:12:01.022Z,11.80
2023-01-12T07:14:28.135Z,11.80
2023-01-12T07:16:54.764Z,11.80
2023-01-12T07:19:21.410Z,11.80
2023-01-12T07:21:48.059Z,11.80
2023-01-12T07:24:14.951Z,11.80
2023-01-12T07:26:41.585Z,11.80
2023-01-12T07:29:08.225Z,11.80
2023-01-12T07:31:34.870Z,11.80
2023-01-12T07:34:01.532Z,11.80
2023-01-12T07:36:28.383Z,11.80
2023-01-12T07:38:55.085Z,11.80
2023-01-12T07:41:21.781Z,11.70
2023-01-12T07:43:48.425Z,11.70
2023-01-12T07:46:15.073Z,11.70
2023-01-12T07:48:42.258Z,11.70
2023-01-12T07:51:08.915Z,11.80
2023-01-12T07:53:35.555Z,11.80
2023-01-12T07:56:02.191Z,11.70
2023-01-12T07:58:28.820Z,11.70
2023-01-12T08:00:55.465Z,11.70
2023-01-12T08:03:22.131Z,11.70
2023-01-12T08:05:48.802Z,11.70
2023-01-12T08:08:15.494Z,11.70
2023-01-12T08:10:42.163Z,11.70
2023-01-12T08:13:08.817Z,11.70
2023-01-12T08:15:35.459Z,11.70
2023-01-12T08:18:03.880Z,11.70
2023-01-12T08:20:32.368Z,11.70
2023-01-12T08:22:59.045Z,11.70
2023-01-12T08:25:25.687Z,11.60
2023-01-12T08:27:52.333Z,11.60
2023-01-12T08:30:19.187Z,11.70
2023-01-12T08:32:46.071Z,11.60
2023-01-12T08:35:12.929Z,11.60
2023-01-12T08:37:39.564Z,11.60
2023-01-12T08:40:06.426Z,11.60
2023-01-12T08:42:33.072Z,11.60
2023-01-12T08:44:59.707Z,11.60
2023-01-12T08:47:26.507Z,11.60
2023-01-12T08:49:53.178Z,11.60
2023-01-12T08:52:20.035Z,11.60
2023-01-12T08:54:46.671Z,11.60
2023-01-12T08:57:13.307Z,11.60
2023-01-12T08:59:39.953Z,11.60
2023-01-12T09:02:06.792Z,11.60
2023-01-12T09:04:33.503Z,11.60
2023-01-12T09:07:00.360Z,11.60
2023-01-12T09:09:27.052Z,11.60
2023-01-12T09:11:53.702Z,11.50
2023-01-12T09:14:20.388Z,11.60
2023-01-12T09:16:47.085Z,11.60
2023-01-12T09:19:13.810Z,11.50
2023-01-12T09:21:40.497Z,11.50
2023-01-12T09:24:07.179Z,11.50
2023-01-12T09:26:33.848Z,11.50
2023-01-12T09:29:00.485Z,11.50
2023-01-12T09:31:27.154Z,11.50
2023-01-12T09:33:53.805Z,11.50
2023-01-12T09:36:20.455Z,11.60
2023-01-12T09:38:47.104Z,11.60
2023-01-12T09:41:13.771Z,11.50
2023-01-12T09:43:40.417Z,11.50
2023-01-12T09:46:07.075Z,11.50
2023-01-12T09:48:33.735Z,11.50
2023-01-12T09:51:00.399Z,11.50
2023-01-12T09:53:27.061Z,11.50
2023-01-12T09:55:53.708Z,11.50
2023-01-12T09:58:20.369Z,11.50
2023-01-12T10:00:47.013Z,11.50
2023-01-12T10:03:13.732Z,11.50
2023-01-12T10:05:40.561Z,11.50
2023-01-12T10:08:07.238Z,11.50
2023-01-12T10:10:33.870Z,11.50
2023-01-12T10:13:00.517Z,11.40
2023-01-12T10:15:27.148Z,11.50
2023-01-12T10:17:53.807Z,11.40
2023-01-12T10:20:20.469Z,11.40
2023-01-12T10:22:47.142Z,11.40
2023-01-12T10:25:13.863Z,11.40
2023-01-12T10:27:40.552Z,11.40
2023-01-12T10:30:07.184Z,11.40
2023-01-12T10:32:41.473Z,11.40
2023-01-12T10:35:08.524Z,11.50
2023-01-12T10:37:35.187Z,11.40
2023-01-12T10:40:01.862Z,11.40
2023-01-12T10:42:28.504Z,11.40
2023-01-12T10:44:55.155Z,11.40
2023-01-12T10:47:21.811Z,11.40
2023-01-12T10:49:48.441Z,11.40
2023-01-12T10:52:15.078Z,11.40
2023-01-12T10:54:41.712Z,11.40
2023-01-12T10:57:08.376Z,11.40
2023-01-12T10:59:35.043Z,11.40
2023-01-12T11:02:01.873Z,11.40
2023-01-12T11:04:28.647Z,11.40
2023-01-12T11:06:55.282Z,11.40
2023-01-12T11:09:21.978Z,11.30
2023-01-12T11:11:48.634Z,11.40
2023-01-12T11:14:22.456Z,11.40
2023-01-12T11:16:49.264Z,11.40
2023-01-12T11:19:15.940Z,11.30
2023-01-12T11:21:42.597Z,11.30
2023-01-12T11:24:09.260Z,11.30
2023-01-12T11:26:35.885Z,11.30
2023-01-12T11:29:02.528Z,11.30
2023-01-12T11:31:29.160Z,11.30
2023-01-12T11:33:55.801Z,11.30
2023-01-12T11:36:22.436Z,11.30
2023-01-12T11:38:49.073Z,11.30
2023-01-12T11:41:16.391Z,11.30
2023-01-12T11:43:43.574Z,11.30
2023-01-12T11:46:10.236Z,11.30
2023-01-12T11:48:36.896Z,11.30
2023-01-12T11:51:03.557Z,11.30
2023-01-12T11:53:30.212Z,11.30
2023-01-12T11:55:56.848Z,11.30
2023-01-12T11:58:23.477Z,11.20
2023-01-12T12:00:50.377Z,11.30
2023-01-12T12:03:17.078Z,11.20
2023-01-12T12:05:43.694Z,11.20
2023-01-12T12:08:10.340Z,11.30
2023-01-12T12:10:37.015Z,11.20
2023-01-12T12:13:03.888Z,11.20
2023-01-12T12:15:30.573Z,11.20
2023-01-12T12:17:57.289Z,11.20
2023-01-12T12:20:23.943Z,11.20
2023-01-12T12:22:50.596Z,11.20
2023-01-12T12:25:17.238Z,11.20
2023-01-12T12:27:43.884Z,11.20
2023-01-12T12:30:10.766Z,11.20
2023-01-12T12:32:37.407Z,11.20
2023-01-12T12:35:04.039Z,11.20
2023-01-12T12:37:30.700Z,11.20
2023-01-12T12:39:57.343Z,11.20
2023-01-12T12:42:23.988Z,11.20
2023-01-12T12:44:50.619Z,11.20
2023-01-12T12:47:17.506Z,11.20
2023-01-12T12:49:44.155Z,11.20
2023-01-12T12:52:10.788Z,11.20
2023-01-12T12:54:37.437Z,11.10
2023-01-12T12:57:04.068Z,11.10
2023-01-12T12:59:30.697Z,11.20
2023-01-12T13:01:57.368Z,11.20
2023-01-12T13:04:24.026Z,11.20
2023-01-12T13:06:50.670Z,11.10
2023-01-12T13:09:17.619Z,11.10
2023-01-12T13:11:44.260Z,11.10
2023-01-12T13:14:11.286Z,11.10
2023-01-12T13:16:37.937Z,11.10
2023-01-12T13:19:04.580Z,11.10
2023-01-12T13:21:31.473Z,11.10
2023-01-12T13:23:58.115Z,11.10
2023-01-12T13:26:24.808Z,11.10
2023-01-12T13:28:51.481Z,11.10
2023-01-12T13:31:18.152Z,11.10
2023-01-12T13:33:44.837Z,11.10
2023-01-12T13:36:11.487Z,11.10
2023-01-12T13:38:38.359Z,11.10
2023-01-12T13:41:05.024Z,11.10
2023-01-12T13:43:31.656Z,11.10
2023-01-12T13:45:58.544Z,11.10
2023-01-12T13:48:25.227Z,11.10
2023-01-12T13:50:51.885Z,11.10
2023-01-12T13:53:18.530Z,11.10
2023-01-12T13:55:45.167Z,11.10
2023-01-12T13:58:11.997Z,11.00
2023-01-12T14:00:38.637Z,11.00
2023-01-12T14:03:05.398Z,11.00
2023-01-12T14:05:32.090Z,11.00
2023-01-12T14:07:58.744Z,11.00
2023-01-12T14:10:25.632Z,11.00
2023-01-12T14:12:52.283Z,11.00
2023-01-12T14:15:18.930Z,11.00
2023-01-12T14:17:45.590Z,11.00
2023-01-12T14:20:12.250Z,11.00
2023-01-12T14:22:38.961Z,11.00
2023-01-12T14:25:05.618Z,11.00
2023-01-12T14:27:32.249Z,11.00
2023-01-12T14:29:58.875Z,11.00
2023-01-12T14:32:25.515Z,11.00
2023-01-12T14:34:52.148Z,11.00
2023-01-12T14:37:18.798Z,11.00
2023-01-12T14:39:45.442Z,11.00
2023-01-12T14:42:12.304Z,11.00
2023-01-12T14:44:38.945Z,11.00
2023-01-12T14:47:05.801Z,10.90
2023-01-12T14:49:32.469Z,11.00
2023-01-12T14:51:59.100Z,10.90
2023-01-12T14:54:25.743Z,10.90
2023-01-12T14:56:52.367Z,10.90
2023-01-12T14:59:19.044Z,10.90
2023-01-12T15:01:45.727Z,10.90
2023-01-12T15:04:12.471Z,10.90
2023-01-12T15:06:39.143Z,10.90
2023-01-12T15:09:05.777Z,10.90
2023-01-12T15:11:32.410Z,10.90
2023-01-12T15:13:59.057Z,10.90
2023-01-12T15:16:25.711Z,10.90
2023-01-12T15:18:53.926Z,10.90
2023-01-12T15:21:20.715Z,10.80
2023-01-12T15:23:47.376Z,10.90
2023-01-12T15:26:14.023Z,10.90
2023-01-12T15:28:40.650Z,10.80
2023-01-12T15:31:07.279Z,10.80
2023-01-12T15:33:33.914Z,10.80
2023-01-12T15:36:00.593Z,10.80
2023-01-12T15:38:27.226Z,10.80
2023-01-12T15:40:53.913Z,10.80
2023-01-12T15:43:20.546Z,10.80
2023-01-12T15:45:47.583Z,10.80
2023-01-12T15:48:14.328Z,10.80
2023-01-12T15:50:41.030Z,10.80
2023-01-12T15:53:07.734Z,10.80
2023-01-12T15:55:34.372Z,10.80
2023-01-12T15:58:01.248Z,10.80
2023-01-12T16:00:27.903Z,10.80
2023-01-12T16:02:54.549Z,10.80
2023-01-12T16:05:21.224Z,10.80
2023-01-12T16:07:48.884Z,10.80
2023-01-12T16:10:15.643Z,10.80
2023-01-12T16:12:42.293Z,10.80
2023-01-12T16:15:08.939Z,10.80
2023-01-12T16:17:35.576Z,10.80
2023-01-12T16:20:02.437Z,10.80
2023-01-12T16:22:29.079Z,10.80
2023-01-12T16:24:55.785Z,10.80
2023-01-12T16:27:22.726Z,10.70
2023-01-12T16:29:49.618Z,10.70
2023-01-12T16:32:16.575Z,10.80
2023-01-12T16:34:43.238Z,10.70
2023-01-12T16:37:09.898Z,10.70
2023-01-12T16:39:36.542Z,10.70
2023-01-12T16:42:03.199Z,10.70
2023-01-12T16:44:29.850Z,10.70
2023-01-12T16:46:56.498Z,10.70
2023-01-12T16:49:23.373Z,10.70
2023-01-12T16:51:50.039Z,10.70
2023-01-12T16:54:16.686Z,10.70
2023-01-12T16:56:43.316Z,10.70
2023-01-12T16:59:09.961Z,10.70
2023-01-12T17:01:36.870Z,10.70
2023-01-12T17:04:03.648Z,10.70
2023-01-12T17:06:30.537Z,10.70
2023-01-12T17:08:57.179Z,10.70
2023-01-12T17:11:23.880Z,10.70
2023-01-12T17:13:52.296Z,10.70
2023-01-12T17:16:19.267Z,10.70
2023-01-12T17:18:46.132Z,10.70
2023-01-12T17:21:12.986Z,10.70
2023-01-12T17:23:39.977Z,10.70
2023-01-12T17:26:06.633Z,10.60
2023-01-12T17:28:33.400Z,10.70
2023-01-12T17:31:00.213Z,10.60
2023-01-12T17:33:26.987Z,10.60
2023-01-12T17:35:53.659Z,10.60
2023-01-12T17:38:20.337Z,10.60
2023-01-12T17:40:47.326Z,10.60
2023-01-12T17:43:13.974Z,10.60
2023-01-12T17:45:40.651Z,10.60
2023-01-12T17:48:07.302Z,10.60
2023-01-12T17:50:33.993Z,10.60
2023-01-12T17:53:00.664Z,10.60
2023-01-12T17:55:27.837Z,10.60
2023-01-12T17:57:54.825Z,10.60
2023-01-12T18:00:21.469Z,10.60
2023-01-12T18:02:48.135Z,10.60
2023-01-12T18:05:14.797Z,10.60
2023-01-12T18:07:42.182Z,10.50
2023-01-12T18:10:08.895Z,10.60
2023-01-12T18:12:35.536Z,10.60
2023-01-12T18:15:02.173Z,10.60
2023-01-12T18:17:28.810Z,10.60
2023-01-12T18:19:55.669Z,10.50
2023-01-12T18:22:22.317Z,10.50
2023-01-12T18:24:48.950Z,10.50
2023-01-12T18:27:15.591Z,10.60
2023-01-12T18:29:42.221Z,10.50
2023-01-12T18:32:09.534Z,10.50
2023-01-12T18:34:36.217Z,10.50
2023-01-12T18:37:03.064Z,10.50
2023-01-12T18:39:29.695Z,10.50
2023-01-12T18:41:56.344Z,10.50
2023-01-12T18:44:23.203Z,10.50
2023-01-12T18:46:50.050Z,10.50
2023-01-12T18:49:16.706Z,10.50
2023-01-12T18:51:43.354Z,10.50
2023-01-12T18:54:09.992Z,10.50
2023-01-12T18:56:36.628Z,10.50
2023-01-12T18:59:03.275Z,10.50
2023-01-12T19:01:29.984Z,10.50
2023-01-12T19:03:56.674Z,10.50
2023-01-12T19:06:23.311Z,10.50
2023-01-12T19:08:49.955Z,10.50
2023-01-12T19:11:16.610Z,10.50
2023-01-12T19:13:43.465Z,10.50
2023-01-12T19:16:10.197Z,10.50
2023-01-12T19:18:37.054Z,10.50
2023-01-12T19:21:03.693Z,10.50
2023-01-12T19:23:30.319Z,10.50
2023-01-12T19:25:56.948Z,10.40
2023-01-12T19:28:23.586Z,10.40
2023-01-12T19:30:50.264Z,10.50
2023-01-12T19:33:16.908Z,10.40
2023-01-12T19:35:43.547Z,10.40
2023-01-12T19:38:10.185Z,10.40
2023-01-12T19:40:36.842Z,10.40
2023-01-12T19:43:03.487Z,10.40
2023-01-12T19:45:30.345Z,10.40
2023-01-12T19:47:57.008Z,10.40
2023-01-12T19:50:23.643Z,10.40
2023-01-12T19:52:50.285Z,10.40
2023-01-12T19:55:17.141Z,10.40
2023-01-12T19:57:43.768Z,10.40
2023-01-12T20:00:10.626Z,10.40
2023-01-12T20:02:37.299Z,10.40
2023-01-12T20:05:03.938Z,10.40
2023-01-12T20:07:31.502Z,10.40
2023-01-12T20:09:58.149Z,10.40
2023-01-12T20:12:24.791Z,10.40
2023-01-12T20:14:51.420Z,10.40
2023-01-12T20:17:18.051Z,10.40
2023-01-12T20:19:44.688Z,10.40
2023-01-12T20:22:11.545Z,10.40
2023-01-12T20:24:38.194Z,10.40
2023-01-12T20:27:04.849Z,10.40
2023-01-12T20:29:31.484Z,10.40
2023-01-12T20:31:58.121Z,10.40
2023-01-12T20:34:24.766Z,10.40
2023-01-12T20:36:51.613Z,10.40
2023-01-12T20:39:18.263Z,10.40
2023-01-12T20:41:44.907Z,10.40
2023-01-12T20:44:11.550Z,10.40
2023-01-12T20:46:38.190Z,10.40
2023-01-12T20:49:04.850Z,10.30
2023-01-12T20:51:31.499Z,10.40
2023-01-12T20:54:00.020Z,10.40
2023-01-12T20:56:27.347Z,10.30
2023-01-12T20:58:53.989Z,10.40
2023-01-12T21:01:20.712Z,10.40
2023-01-12T21:03:47.433Z,10.30
2023-01-12T21:06:14.319Z,10.30
2023-01-12T21:08:40.964Z,10.30
2023-01-12T21:11:07.607Z,10.30
2023-01-12T21:13:34.267Z,10.30
2023-01-12T21:16:00.907Z,10.30
2023-01-12T21:18:27.545Z,10.30
2023-01-12T21:20:54.202Z,10.30
2023-01-12T21:23:20.844Z,10.30
2023-01-12T21:25:47.495Z,10.30
2023-01-12T21:28:14.159Z,10.30
2023-01-12T21:30:40.825Z,10.30
2023-01-12T21:33:07.464Z,10.30
2023-01-12T21:35:34.322Z,10.30
2023-01-12T21:38:00.962Z,10.30
2023-01-12T21:40:27.591Z,10.30
2023-01-12T21:42:54.221Z,10.30
2023-01-12T21:45:20.847Z,10.20
2023-01-12T21:47:47.730Z,10.30
2023-01-12T21:50:14.595Z,10.30
2023-01-12T21:52:41.229Z,10.30
2023-01-12T21:55:07.875Z,10.20
2023-01-12T21:57:34.512Z,10.20
2023-01-12T22:00:01.223Z,10.30
2023-01-12T22:02:27.854Z,10.20
2023-01-12T22:04:54.487Z,10.30
2023-01-12T22:07:21.877Z,10.20
2023-01-12T22:09:48.887Z,10.20
2023-01-12T22:12:15.526Z,10.30
2023-01-12T22:14:42.153Z,10.20
2023-01-12T22:17:08.805Z,10.20
2023-01-12T22:19:37.483Z,10.30
2023-01-12T22:22:05.920Z,10.20
2023-01-12T22:24:32.571Z,10.20
2023-01-12T22:26:59.207Z,10.20
2023-01-12T22:29:25.837Z,10.20
2023-01-12T22:31:52.486Z,10.20
2023-01-12T22:34:19.148Z,10.20
2023-01-12T22:36:45.986Z,10.20
2023-01-12T22:39:12.618Z,10.20
2023-01-12T22:41:39.240Z,10.20
2023-01-12T22:44:05.869Z,10.20
2023-01-12T22:46:32.512Z,10.20
2023-01-12T22:48:59.152Z,10.20
2023-01-12T22:51:25.785Z,10.20
2023-01-12T22:53:52.413Z,10.20
2023-01-12T22:56:19.047Z,10.20
2023-01-12T22:58:45.683Z,10.20
2023-01-12T23:01:12.530Z,10.20
2023-01-12T23:03:39.367Z,10.20
2023-01-12T23:06:06.439Z,10.20
2023-01-12T23:08:33.276Z,10.20
2023-01-12T23:11:00.096Z,10.20
2023-01-12T23:13:26.930Z,10.20
2023-01-12T23:15:53.765Z,10.20
2023-01-12T23:18:20.617Z,10.20
2023-01-12T23:20:47.436Z,10.20
2023-01-12T23:23:14.256Z,10.20
2023-01-12T23:25:41.078Z,10.20
2023-01-12T23:28:08.136Z,10.20
2023-01-12T23:30:34.983Z,10.20
2023-01-12T23:33:02.022Z,10.10
2023-01-12T23:35:28.852Z,10.20
2023-01-12T23:37:55.891Z,10.10
2023-01-12T23:40:22.704Z,10.10
2023-01-12T23:42:49.519Z,10.20
2023-01-12T23:45:16.348Z,10.10
2023-01-12T23:47:43.370Z,10.10
2023-01-12T23:50:10.187Z,10.10
2023-01-12T23:52:37.010Z,10.10
2023-01-12T23:55:03.842Z,10.10
2023-01-12T23:57:30.663Z,10.10
2023-01-12T23:59:57.506Z,10.10
